Glorious Future — 3EFE7 — position and weather

sailwx.info

Track history (hours):
 
Tides and Currents Weather Stations Pressure Air Temp Water Temp Dewpoint Dewpoint Depression Visibility Wind Speed Wind Dir Waves Ship Positions

Glorious Future

Last reported at 2018-Apr-19 23:01 UTC. Time now 2018-Apr-22 08:28 UTC.
Position N 34°43' E 130°49'.

Length 158 m; draft 5.5 m.

Type: Cargo ship. MMSI: 353618000.

Date/timePositionNaut miles runAvg speedWind from/ knotsBaromVisibWave heightAir tempDewpointWater temp
2018-Apr-19 23:01N 34°43' E 130°49'113.5
2018-Apr-19 22:58N 34°42' E 130°49'813.4
2018-Apr-19 22:21N 34°34' E 130°46'513.4
2018-Apr-19 22:00N 34°29' E 130°45'713.8
2018-Apr-19 21:30N 34°23' E 130°44'713.7
2018-Apr-19 21:00N 34°16' E 130°44'713.5
2018-Apr-19 20:30N 34°09' E 130°43'612.3
2018-Apr-19 20:00N 34°03' E 130°47'612.0
2018-Apr-19 19:30N 33°60' E 130°52'3 6.6
2018-Apr-19 19:00N 33°57' E 130°52'3 6.4
2018-Apr-19 18:30N 33°55' E 130°56'5 9.9
2018-Apr-19 18:00N 33°59' E 131°00'4 8.9
2018-Apr-19 17:30N 33°56' E 131°04'510.1
2018-Apr-19 17:00N 33°53' E 131°10'611.7
2018-Apr-19 16:30N 33°51' E 131°16'713.9
2018-Apr-19 16:01N 33°50' E 131°24'713.6
2018-Apr-19 15:31N 33°48' E 131°32'713.4
2018-Apr-19 15:00N 33°47' E 131°40'713.8
2018-Apr-19 14:30N 33°46' E 131°48'714.1
2018-Apr-19 14:00N 33°44' E 131°57'1213.1
2018-Apr-19 13:05N 33°43' E 132°11'412.9
2018-Apr-19 12:48N 33°44' E 132°15'613.1
2018-Apr-19 12:21N 33°46' E 132°22'412.7
2018-Apr-19 11:59N 33°48' E 132°27'612.7
2018-Apr-19 11:30N 33°51' E 132°33'510.3
2018-Apr-19 11:00N 33°55' E 132°37'612.2
2018-Apr-19 10:30N 33°59' E 132°43'713.6
2018-Apr-19 09:58N 34°04' E 132°48'  
2018-Apr-17 01:21N 34°02' E 132°47'513.0
2018-Apr-17 01:00N 33°58' E 132°44'713.2
2018-Apr-17 00:30N 33°54' E 132°38'612.5
2018-Apr-16 23:59N 33°49' E 132°32'712.9
2018-Apr-16 23:29N 33°46' E 132°25'713.1
2018-Apr-16 22:58N 33°44' E 132°18'813.0
2018-Apr-16 22:23N 33°42' E 132°09'512.2
2018-Apr-16 22:00N 33°42' E 132°03'612.1
2018-Apr-16 21:30N 33°43' E 131°56'612.0
2018-Apr-16 21:00N 33°45' E 131°49'612.2
2018-Apr-16 20:30N 33°46' E 131°42'612.2
2018-Apr-16 20:00N 33°47' E 131°35'612.6
2018-Apr-16 19:30N 33°48' E 131°27'612.7
2018-Apr-16 19:00N 33°50' E 131°20'612.8
2018-Apr-16 18:30N 33°51' E 131°12'612.1
2018-Apr-16 18:00N 33°55' E 131°06'510.7
2018-Apr-16 17:30N 33°58' E 131°01'4 8.5
2018-Apr-16 17:00N 33°57' E 130°57'4 7.1
2018-Apr-16 16:30N 33°56' E 130°52'5 9.6
2018-Apr-16 16:00N 34°01' E 130°51'4 7.7
2018-Apr-16 15:30N 34°03' E 130°48'3 6.2
2018-Apr-16 15:00N 34°05' E 130°44'510.2
2018-Apr-16 14:30N 34°08' E 130°40'510.3
2018-Apr-16 14:00N 34°12' E 130°36'510.2
2018-Apr-16 13:30N 34°16' E 130°32'510.1
2018-Apr-16 13:00N 34°20' E 130°29'510.1
2018-Apr-16 12:29N 34°24' E 130°25'510.4
2018-Apr-16 12:00N 34°28' E 130°21'612.3
2018-Apr-16 11:30N 34°33' E 130°16'11 0.8
2018-Apr-15 21:47N 34°40' E 130°26'1 3.2
2018-Apr-15 21:25N 34°39' E 130°27'1 0.3
2018-Apr-15 16:37N 34°40' E 130°26'28 0.7
2018-Apr-13 21:43N 34°43' E 129°52'31 1.0
2018-Apr-12 14:19N 34°52' E 130°28'0 0.9
2018-Apr-12 13:55N 34°52' E 130°28'1 0.9
2018-Apr-12 12:31N 34°51' E 130°27'0 0.9
2018-Apr-12 12:01N 34°51' E 130°26'0 0.7
2018-Apr-12 11:55N 34°51' E 130°26'0 0.7
2018-Apr-12 11:25N 34°51' E 130°26'0 0.7
2018-Apr-12 10:55N 34°51' E 130°26'0 0.7
2018-Apr-12 10:25N 34°50' E 130°25'1 0.7
2018-Apr-12 09:37N 34°50' E 130°25'0 0.8
2018-Apr-12 09:25N 34°50' E 130°24'0 0.6
2018-Apr-12 08:55N 34°50' E 130°24'0 0.6
2018-Apr-12 08:19N 34°50' E 130°24'0 0.5
2018-Apr-12 07:55N 34°50' E 130°24'0 0.5
2018-Apr-12 07:01N 34°49' E 130°23'0 0.6
2018-Apr-12 06:55N 34°49' E 130°23'1 0.5
2018-Apr-12 04:43N 34°49' E 130°22'0 1.0
2018-Apr-12 04:25N 34°49' E 130°21'1 0.7
2018-Apr-12 03:13N 34°49' E 130°20'0 0.6
2018-Apr-12 02:55N 34°49' E 130°20'5 0.4
2018-Apr-11 15:55N 34°53' E 130°17'0 0.8
2018-Apr-11 15:25N 34°53' E 130°16'1 0.9
2018-Apr-11 14:43N 34°53' E 130°15'0 1.0
2018-Apr-11 14:25N 34°53' E 130°15'0 1.1
2018-Apr-11 13:58N 34°52' E 130°15'1 1.2
2018-Apr-11 13:28N 34°52' E 130°14'1 1.3
2018-Apr-11 12:55N 34°51' E 130°13'1 1.4
2018-Apr-11 12:13N 34°51' E 130°13'0 1.4
2018-Apr-11 11:55N 34°50' E 130°12'1 1.3
2018-Apr-11 11:25N 34°50' E 130°12'1 1.2
2018-Apr-11 10:55N 34°49' E 130°11'1 1.3
2018-Apr-11 10:22N 34°49' E 130°11'1 1.1
2018-Apr-11 09:55N 34°49' E 130°10'1 1.2
2018-Apr-11 09:19N 34°48' E 130°09'0 1.1
2018-Apr-11 08:58N 34°48' E 130°09'0 0.9
2018-Apr-11 08:25N 34°48' E 130°09'0 0.9
2018-Apr-11 07:55N 34°47' E 130°08'0 0.8
2018-Apr-11 07:25N 34°47' E 130°08'1 0.9
2018-Apr-11 06:07N 34°47' E 130°06'0 1.0
2018-Apr-11 05:55N 34°47' E 130°06'  
Track history (hours):
 
Tides and Currents Weather Stations Pressure Air Temp Water Temp Dewpoint Dewpoint Depression Visibility Wind Speed Wind Dir Waves Ship Positions

Glorious Future

Last reported at 2018-Apr-19 23:01 UTC. Time now 2018-Apr-22 08:28 UTC.
Position N 34°43' E 130°49'.

Length 158 m; draft 5.5 m.

Type: Cargo ship. MMSI: 353618000.

Date/timePositionNaut miles runAvg speedWind from/ knotsBaromVisibWave heightAir tempDewpointWater temp
2018-Apr-19 23:01N 34°43' E 130°49'113.5
2018-Apr-19 22:58N 34°42' E 130°49'813.4
2018-Apr-19 22:21N 34°34' E 130°46'513.4
2018-Apr-19 22:00N 34°29' E 130°45'713.8
2018-Apr-19 21:30N 34°23' E 130°44'713.7
2018-Apr-19 21:00N 34°16' E 130°44'713.5
2018-Apr-19 20:30N 34°09' E 130°43'612.3
2018-Apr-19 20:00N 34°03' E 130°47'612.0
2018-Apr-19 19:30N 33°60' E 130°52'3 6.6
2018-Apr-19 19:00N 33°57' E 130°52'3 6.4
2018-Apr-19 18:30N 33°55' E 130°56'5 9.9
2018-Apr-19 18:00N 33°59' E 131°00'4 8.9
2018-Apr-19 17:30N 33°56' E 131°04'510.1
2018-Apr-19 17:00N 33°53' E 131°10'611.7
2018-Apr-19 16:30N 33°51' E 131°16'713.9
2018-Apr-19 16:01N 33°50' E 131°24'713.6
2018-Apr-19 15:31N 33°48' E 131°32'713.4
2018-Apr-19 15:00N 33°47' E 131°40'713.8
2018-Apr-19 14:30N 33°46' E 131°48'714.1
2018-Apr-19 14:00N 33°44' E 131°57'1213.1
2018-Apr-19 13:05N 33°43' E 132°11'412.9
2018-Apr-19 12:48N 33°44' E 132°15'613.1
2018-Apr-19 12:21N 33°46' E 132°22'412.7
2018-Apr-19 11:59N 33°48' E 132°27'612.7
2018-Apr-19 11:30N 33°51' E 132°33'510.3
2018-Apr-19 11:00N 33°55' E 132°37'612.2
2018-Apr-19 10:30N 33°59' E 132°43'713.6
2018-Apr-19 09:58N 34°04' E 132°48'  
2018-Apr-17 01:21N 34°02' E 132°47'513.0
2018-Apr-17 01:00N 33°58' E 132°44'713.2
2018-Apr-17 00:30N 33°54' E 132°38'612.5
2018-Apr-16 23:59N 33°49' E 132°32'712.9
2018-Apr-16 23:29N 33°46' E 132°25'713.1
2018-Apr-16 22:58N 33°44' E 132°18'813.0
2018-Apr-16 22:23N 33°42' E 132°09'512.2
2018-Apr-16 22:00N 33°42' E 132°03'612.1
2018-Apr-16 21:30N 33°43' E 131°56'612.0
2018-Apr-16 21:00N 33°45' E 131°49'612.2
2018-Apr-16 20:30N 33°46' E 131°42'612.2
2018-Apr-16 20:00N 33°47' E 131°35'612.6
2018-Apr-16 19:30N 33°48' E 131°27'612.7
2018-Apr-16 19:00N 33°50' E 131°20'612.8
2018-Apr-16 18:30N 33°51' E 131°12'612.1
2018-Apr-16 18:00N 33°55' E 131°06'510.7
2018-Apr-16 17:30N 33°58' E 131°01'4 8.5
2018-Apr-16 17:00N 33°57' E 130°57'4 7.1
2018-Apr-16 16:30N 33°56' E 130°52'5 9.6
2018-Apr-16 16:00N 34°01' E 130°51'4 7.7
2018-Apr-16 15:30N 34°03' E 130°48'3 6.2
2018-Apr-16 15:00N 34°05' E 130°44'510.2
2018-Apr-16 14:30N 34°08' E 130°40'510.3
2018-Apr-16 14:00N 34°12' E 130°36'510.2
2018-Apr-16 13:30N 34°16' E 130°32'510.1
2018-Apr-16 13:00N 34°20' E 130°29'510.1
2018-Apr-16 12:29N 34°24' E 130°25'510.4
2018-Apr-16 12:00N 34°28' E 130°21'612.3
2018-Apr-16 11:30N 34°33' E 130°16'11 0.8
2018-Apr-15 21:47N 34°40' E 130°26'1 3.2
2018-Apr-15 21:25N 34°39' E 130°27'1 0.3
2018-Apr-15 16:37N 34°40' E 130°26'28 0.7
2018-Apr-13 21:43N 34°43' E 129°52'31 1.0
2018-Apr-12 14:19N 34°52' E 130°28'0 0.9
2018-Apr-12 13:55N 34°52' E 130°28'1 0.9
2018-Apr-12 12:31N 34°51' E 130°27'0 0.9
2018-Apr-12 12:01N 34°51' E 130°26'0 0.7
2018-Apr-12 11:55N 34°51' E 130°26'0 0.7
2018-Apr-12 11:25N 34°51' E 130°26'0 0.7
2018-Apr-12 10:55N 34°51' E 130°26'0 0.7
2018-Apr-12 10:25N 34°50' E 130°25'1 0.7
2018-Apr-12 09:37N 34°50' E 130°25'0 0.8
2018-Apr-12 09:25N 34°50' E 130°24'0 0.6
2018-Apr-12 08:55N 34°50' E 130°24'0 0.6
2018-Apr-12 08:19N 34°50' E 130°24'0 0.5
2018-Apr-12 07:55N 34°50' E 130°24'0 0.5
2018-Apr-12 07:01N 34°49' E 130°23'0 0.6
2018-Apr-12 06:55N 34°49' E 130°23'1 0.5
2018-Apr-12 04:43N 34°49' E 130°22'0 1.0
2018-Apr-12 04:25N 34°49' E 130°21'1 0.7
2018-Apr-12 03:13N 34°49' E 130°20'0 0.6
2018-Apr-12 02:55N 34°49' E 130°20'5 0.4
2018-Apr-11 15:55N 34°53' E 130°17'0 0.8
2018-Apr-11 15:25N 34°53' E 130°16'1 0.9
2018-Apr-11 14:43N 34°53' E 130°15'0 1.0
2018-Apr-11 14:25N 34°53' E 130°15'0 1.1
2018-Apr-11 13:58N 34°52' E 130°15'1 1.2
2018-Apr-11 13:28N 34°52' E 130°14'1 1.3
2018-Apr-11 12:55N 34°51' E 130°13'1 1.4
2018-Apr-11 12:13N 34°51' E 130°13'0 1.4
2018-Apr-11 11:55N 34°50' E 130°12'1 1.3
2018-Apr-11 11:25N 34°50' E 130°12'1 1.2
2018-Apr-11 10:55N 34°49' E 130°11'1 1.3
2018-Apr-11 10:22N 34°49' E 130°11'1 1.1
2018-Apr-11 09:55N 34°49' E 130°10'1 1.2
2018-Apr-11 09:19N 34°48' E 130°09'0 1.1
2018-Apr-11 08:58N 34°48' E 130°09'0 0.9
2018-Apr-11 08:25N 34°48' E 130°09'0 0.9
2018-Apr-11 07:55N 34°47' E 130°08'0 0.8
2018-Apr-11 07:25N 34°47' E 130°08'1 0.9
2018-Apr-11 06:07N 34°47' E 130°06'0 1.0
2018-Apr-11 05:55N 34°47' E 130°06'  

Dump ship's entire track history